createdAt,value
2023-03-23T00:02:48.239Z,62.70
2023-03-23T00:06:00.776Z,62.87
2023-03-23T00:09:07.258Z,62.53
2023-03-23T00:12:16.826Z,62.63
2023-03-23T00:15:26.325Z,63.07
2023-03-23T00:18:33.451Z,62.85
2023-03-23T00:21:44.536Z,63.20
2023-03-23T00:24:53.179Z,63.46
2023-03-23T00:27:59.271Z,63.00
2023-03-23T00:31:12.005Z,63.20
2023-03-23T00:34:23.837Z,63.43
2023-03-23T00:37:33.316Z,63.08
2023-03-23T00:40:39.497Z,63.74
2023-03-23T00:43:52.745Z,63.34
2023-03-23T00:46:59.605Z,63.42
2023-03-23T00:50:06.756Z,63.02
2023-03-23T00:53:15.378Z,63.56
2023-03-23T00:56:22.207Z,63.48
2023-03-23T00:59:29.024Z,62.81
2023-03-23T01:02:37.064Z,63.48
2023-03-23T01:05:44.417Z,63.35
2023-03-23T01:08:56.307Z,63.88
2023-03-23T01:12:09.514Z,63.67
2023-03-23T01:15:21.396Z,64.23
2023-03-23T01:18:34.014Z,64.47
2023-03-23T01:21:42.131Z,64.42
2023-03-23T01:24:53.686Z,64.96
2023-03-23T01:28:02.296Z,65.14
2023-03-23T01:31:14.539Z,65.56
2023-03-23T01:34:21.652Z,65.32
2023-03-23T01:37:28.106Z,65.82
2023-03-23T01:40:39.270Z,66.03
2023-03-23T01:44:04.929Z,66.11
2023-03-23T01:47:27.945Z,66.37
2023-03-23T01:51:03.225Z,66.64
2023-03-23T01:54:20.488Z,66.72
2023-03-23T01:57:32.729Z,66.45
2023-03-23T02:00:53.432Z,65.88
2023-03-23T02:04:02.654Z,66.11
2023-03-23T02:07:10.360Z,66.27
2023-03-23T02:10:16.878Z,65.83
2023-03-23T02:13:33.296Z,66.18
2023-03-23T02:16:55.333Z,66.08
2023-03-23T02:20:46.995Z,65.51
2023-03-23T02:24:48.273Z,65.61
2023-03-23T02:28:46.546Z,64.89
2023-03-23T02:32:19.852Z,64.71
2023-03-23T02:35:40.080Z,65.08
2023-03-23T02:39:00.423Z,64.61
2023-03-23T02:42:14.316Z,64.62
2023-03-23T02:45:31.577Z,64.72
2023-03-23T02:48:41.191Z,64.47
2023-03-23T02:51:56.070Z,64.49
2023-03-23T02:55:13.070Z,64.50
2023-03-23T02:58:20.476Z,64.45
2023-03-23T03:01:56.868Z,64.27
2023-03-23T03:05:18.861Z,64.53
2023-03-23T03:08:40.769Z,64.14
2023-03-23T03:11:59.661Z,63.51
2023-03-23T03:15:22.695Z,63.46
2023-03-23T03:18:39.000Z,63.13
2023-03-23T03:21:50.029Z,62.84
2023-03-23T03:25:20.401Z,63.11
2023-03-23T03:28:34.711Z,62.88
2023-03-23T03:31:46.940Z,62.68
2023-03-23T03:34:53.726Z,63.06
2023-03-23T03:38:11.403Z,62.67
2023-03-23T03:41:24.624Z,63.16
2023-03-23T03:44:32.362Z,62.88
2023-03-23T03:47:45.438Z,63.07
2023-03-23T03:50:57.931Z,63.23
2023-03-23T03:54:04.193Z,63.14
2023-03-23T03:57:13.687Z,62.63
2023-03-23T04:00:22.305Z,62.92
2023-03-23T04:03:31.881Z,62.85
2023-03-23T04:06:45.017Z,62.61
2023-03-23T04:09:52.191Z,62.80
2023-03-23T04:13:11.285Z,63.07
2023-03-23T04:16:54.417Z,62.85
2023-03-23T04:20:01.298Z,63.22
2023-03-23T04:23:09.574Z,63.04
2023-03-23T04:26:23.531Z,63.20
2023-03-23T04:29:35.197Z,63.41
2023-03-23T04:33:02.572Z,63.74
2023-03-23T04:36:10.975Z,63.85
2023-03-23T04:39:19.118Z,63.85
2023-03-23T04:42:26.700Z,63.67
2023-03-23T04:45:59.908Z,64.20
2023-03-23T04:49:13.284Z,64.38
2023-03-23T04:52:23.400Z,64.36
2023-03-23T04:55:40.318Z,63.99
2023-03-23T04:58:48.769Z,64.17
2023-03-23T05:02:14.558Z,63.79
2023-03-23T05:05:36.920Z,64.03
2023-03-23T05:08:47.466Z,64.04
2023-03-23T05:11:54.350Z,63.61
2023-03-23T05:15:03.662Z,63.52
2023-03-23T05:18:14.098Z,63.58
2023-03-23T05:21:20.935Z,63.74
2023-03-23T05:24:32.542Z,63.59
2023-03-23T05:27:43.767Z,63.33
2023-03-23T05:30:59.928Z,63.25
2023-03-23T05:34:14.463Z,63.04
2023-03-23T05:37:27.933Z,62.61
2023-03-23T05:40:39.527Z,62.39
2023-03-23T05:43:52.760Z,62.18
2023-03-23T05:47:04.626Z,61.46
2023-03-23T05:50:15.610Z,61.36
2023-03-23T05:53:22.803Z,60.91
2023-03-23T05:56:29.742Z,60.42
2023-03-23T05:59:50.050Z,59.60
2023-03-23T06:03:02.373Z,59.49
2023-03-23T06:06:23.880Z,58.82
2023-03-23T06:09:44.449Z,58.12
2023-03-23T06:13:03.798Z,58.62
2023-03-23T06:16:20.209Z,57.68
2023-03-23T06:19:37.702Z,57.83
2023-03-23T06:22:56.088Z,58.20
2023-03-23T06:26:12.338Z,58.15
2023-03-23T06:29:21.617Z,57.62
2023-03-23T06:32:37.494Z,58.24
2023-03-23T06:35:47.678Z,58.96
2023-03-23T06:39:08.329Z,58.74
2023-03-23T06:42:34.522Z,58.61
2023-03-23T06:46:15.707Z,58.52
2023-03-23T06:49:22.274Z,58.76
2023-03-23T06:52:35.335Z,58.67
2023-03-23T06:55:48.092Z,58.97
2023-03-23T06:58:55.060Z,59.08
2023-03-23T07:02:03.088Z,58.59
2023-03-23T07:05:11.920Z,59.03
2023-03-23T07:08:19.012Z,58.96
2023-03-23T07:11:34.195Z,59.55
2023-03-23T07:14:47.150Z,59.43
2023-03-23T07:17:55.692Z,59.63
2023-03-23T07:21:14.084Z,59.53
2023-03-23T07:24:21.938Z,59.40
2023-03-23T07:28:05.076Z,59.85
2023-03-23T07:31:12.624Z,59.30
2023-03-23T07:34:18.935Z,59.03
2023-03-23T07:37:46.672Z,59.08
2023-03-23T07:40:53.775Z,58.30
2023-03-23T07:44:04.045Z,58.42
2023-03-23T07:47:14.714Z,58.60
2023-03-23T07:50:23.470Z,58.13
2023-03-23T07:53:29.799Z,57.60
2023-03-23T07:56:54.258Z,57.36
2023-03-23T08:00:20.404Z,57.26
2023-03-23T08:03:28.377Z,57.30
2023-03-23T08:06:57.520Z,56.75
2023-03-23T08:10:38.025Z,56.09
2023-03-23T08:14:21.967Z,54.81
2023-03-23T08:18:05.070Z,54.25
2023-03-23T08:21:20.196Z,53.39
2023-03-23T08:24:50.039Z,53.48
2023-03-23T08:28:29.029Z,50.61
2023-03-23T08:32:12.122Z,48.54
2023-03-23T08:36:02.857Z,47.23
2023-03-23T08:39:35.609Z,45.82
2023-03-23T08:43:03.077Z,46.21
2023-03-23T08:46:42.411Z,46.55
2023-03-23T08:49:58.110Z,46.02
2023-03-23T08:53:31.561Z,45.68
2023-03-23T08:56:57.964Z,45.85
2023-03-23T09:00:17.788Z,45.87
2023-03-23T09:03:53.135Z,44.57
2023-03-23T09:07:10.774Z,41.23
2023-03-23T09:10:21.556Z,39.44
2023-03-23T09:13:28.303Z,40.22
2023-03-23T09:16:41.240Z,39.92
2023-03-23T09:19:48.289Z,39.42
2023-03-23T09:23:08.297Z,40.24
2023-03-23T09:26:18.673Z,39.97
2023-03-23T09:29:25.128Z,40.19
2023-03-23T09:32:48.932Z,40.25
2023-03-23T09:35:55.063Z,40.85
2023-03-23T09:39:05.872Z,42.39
2023-03-23T09:42:44.652Z,42.28
2023-03-23T09:46:21.440Z,40.83
2023-03-23T09:49:41.992Z,39.60
2023-03-23T09:53:09.143Z,37.55
2023-03-23T09:56:20.015Z,34.58
2023-03-23T09:59:43.481Z,33.90
2023-03-23T10:03:04.185Z,32.38
2023-03-23T10:06:16.584Z,32.24
2023-03-23T10:09:27.169Z,32.74
2023-03-23T10:12:49.246Z,32.29
2023-03-23T10:16:00.897Z,32.17
2023-03-23T10:19:22.022Z,31.97
2023-03-23T10:22:40.760Z,31.00
2023-03-23T10:26:11.559Z,30.51
2023-03-23T10:29:46.986Z,30.68
2023-03-23T10:33:18.786Z,29.49
2023-03-23T10:36:33.408Z,31.42
2023-03-23T10:39:52.918Z,32.69
2023-03-23T10:43:00.091Z,33.33
2023-03-23T10:46:31.790Z,34.79
2023-03-23T10:49:49.464Z,35.92
2023-03-23T10:53:01.399Z,36.31
2023-03-23T10:56:26.197Z,37.29
2023-03-23T10:59:38.958Z,38.11
2023-03-23T11:02:50.319Z,38.24
2023-03-23T11:06:10.191Z,39.13
2023-03-23T11:09:19.797Z,38.83
2023-03-23T11:12:32.796Z,39.26
2023-03-23T11:15:43.448Z,39.67
2023-03-23T11:18:50.469Z,39.68
2023-03-23T11:22:24.000Z,39.94
2023-03-23T11:25:30.809Z,40.63
2023-03-23T11:28:49.226Z,40.14
2023-03-23T11:32:09.125Z,40.16
2023-03-23T11:35:25.189Z,39.56
2023-03-23T11:38:36.770Z,39.52
2023-03-23T11:41:43.191Z,39.63
2023-03-23T11:44:50.852Z,39.82
2023-03-23T11:48:16.096Z,40.28
2023-03-23T11:51:35.687Z,40.55
2023-03-23T11:54:54.939Z,40.41
2023-03-23T11:58:16.139Z,40.83
2023-03-23T12:01:45.541Z,40.64
2023-03-23T12:05:37.547Z,40.57
2023-03-23T12:09:14.020Z,40.77
2023-03-23T12:12:54.048Z,40.03
2023-03-23T12:16:14.900Z,40.35
2023-03-23T12:19:35.963Z,40.07
2023-03-23T12:23:05.752Z,40.21
2023-03-23T12:26:23.955Z,40.11
2023-03-23T12:29:57.550Z,40.17
2023-03-23T12:33:28.575Z,39.72
2023-03-23T12:36:55.117Z,39.94
2023-03-23T12:40:39.932Z,40.08
2023-03-23T12:44:01.782Z,40.28
2023-03-23T12:47:38.992Z,40.19
2023-03-23T12:51:06.767Z,39.64
2023-03-23T12:54:26.844Z,40.43
2023-03-23T12:57:44.018Z,40.58
2023-03-23T13:01:05.020Z,40.24
2023-03-23T13:04:22.869Z,40.01
2023-03-23T13:07:40.001Z,40.59
2023-03-23T13:10:52.141Z,39.98
2023-03-23T13:14:09.951Z,40.48
2023-03-23T13:17:33.758Z,40.02
2023-03-23T13:21:00.041Z,40.10
2023-03-23T13:24:12.726Z,39.64
2023-03-23T13:27:19.571Z,39.49
2023-03-23T13:30:29.625Z,39.11
2023-03-23T13:33:40.128Z,39.02
2023-03-23T13:36:58.998Z,38.54
2023-03-23T13:40:29.933Z,37.94
2023-03-23T13:43:42.833Z,37.64
2023-03-23T13:47:02.302Z,37.40
2023-03-23T13:50:30.884Z,37.80
2023-03-23T13:53:52.966Z,37.07
2023-03-23T13:57:04.398Z,36.47
2023-03-23T14:00:52.278Z,37.34
2023-03-23T14:04:00.406Z,37.63
2023-03-23T14:07:16.602Z,37.37
2023-03-23T14:10:26.458Z,37.36
2023-03-23T14:13:49.724Z,37.78
2023-03-23T14:16:56.831Z,37.85
2023-03-23T14:20:08.713Z,38.09
2023-03-23T14:23:24.041Z,37.72
2023-03-23T14:26:37.768Z,37.43
2023-03-23T14:29:46.990Z,37.56
2023-03-23T14:32:56.513Z,37.47
2023-03-23T14:36:04.668Z,37.72
2023-03-23T14:39:27.935Z,37.18
2023-03-23T14:42:40.770Z,37.45
2023-03-23T14:45:52.747Z,37.76
2023-03-23T14:49:03.621Z,37.57
2023-03-23T14:52:16.744Z,37.63
2023-03-23T14:55:28.281Z,37.77
2023-03-23T14:58:38.580Z,38.32
2023-03-23T15:01:50.043Z,38.52
2023-03-23T15:05:04.316Z,38.55
2023-03-23T15:08:18.877Z,38.14
2023-03-23T15:11:31.333Z,38.09
2023-03-23T15:14:50.945Z,38.38
2023-03-23T15:17:58.771Z,37.93
2023-03-23T15:21:16.122Z,38.33
2023-03-23T15:24:37.234Z,38.32
2023-03-23T15:27:50.345Z,38.33
2023-03-23T15:31:06.410Z,37.84
2023-03-23T15:34:35.569Z,38.08
2023-03-23T15:37:49.582Z,37.96
2023-03-23T15:41:00.889Z,38.63
2023-03-23T15:44:36.677Z,38.40
2023-03-23T15:47:58.775Z,39.95
2023-03-23T15:51:09.148Z,40.73
2023-03-23T15:54:20.117Z,40.69
2023-03-23T15:57:26.976Z,39.54
2023-03-23T16:00:36.118Z,38.94
2023-03-23T16:03:51.969Z,39.43
2023-03-23T16:07:01.368Z,39.79
2023-03-23T16:10:17.876Z,39.51
2023-03-23T16:13:25.582Z,39.43
2023-03-23T16:16:39.547Z,39.23
2023-03-23T16:19:48.211Z,39.11
2023-03-23T16:22:59.197Z,38.86
2023-03-23T16:26:05.436Z,39.29
2023-03-23T16:29:40.165Z,39.44
2023-03-23T16:32:50.485Z,39.41
2023-03-23T16:36:01.721Z,39.57
2023-03-23T16:39:08.456Z,39.86
2023-03-23T16:42:15.966Z,39.52
2023-03-23T16:45:24.416Z,39.77
2023-03-23T16:48:31.489Z,39.32
2023-03-23T16:51:41.098Z,39.49
2023-03-23T16:55:06.040Z,40.01
2023-03-23T16:58:17.061Z,39.70
2023-03-23T17:01:44.840Z,40.46
2023-03-23T17:05:18.815Z,40.41
2023-03-23T17:08:28.458Z,40.79
2023-03-23T17:11:36.261Z,40.67
2023-03-23T17:14:43.210Z,40.83
2023-03-23T17:17:49.345Z,40.92
2023-03-23T17:20:57.585Z,41.36
2023-03-23T17:24:19.587Z,41.36
2023-03-23T17:27:26.768Z,41.88
2023-03-23T17:30:35.981Z,42.60
2023-03-23T17:33:42.852Z,43.17
2023-03-23T17:36:49.088Z,44.18
2023-03-23T17:39:58.606Z,44.64
2023-03-23T17:43:16.801Z,44.79
2023-03-23T17:46:43.995Z,44.35
2023-03-23T17:49:50.063Z,43.70
2023-03-23T17:53:03.783Z,44.16
2023-03-23T17:56:19.138Z,44.23
2023-03-23T17:59:26.042Z,44.55
2023-03-23T18:02:32.356Z,44.47
2023-03-23T18:05:46.405Z,44.25
2023-03-23T18:08:52.400Z,45.26
2023-03-23T18:12:11.635Z,45.54
2023-03-23T18:15:17.781Z,46.12
2023-03-23T18:18:25.605Z,45.79
2023-03-23T18:21:31.688Z,45.76
2023-03-23T18:24:38.543Z,45.45
2023-03-23T18:27:47.375Z,45.51
2023-03-23T18:31:07.982Z,45.67
2023-03-23T18:34:25.161Z,46.25
2023-03-23T18:37:32.164Z,45.87
2023-03-23T18:40:38.249Z,46.23
2023-03-23T18:43:48.580Z,46.40
2023-03-23T18:46:54.631Z,46.92
2023-03-23T18:50:01.871Z,46.47
2023-03-23T18:53:07.887Z,46.51
2023-03-23T18:56:19.317Z,46.55
2023-03-23T18:59:31.495Z,46.41
2023-03-23T19:02:40.429Z,46.54
2023-03-23T19:05:55.820Z,46.36
2023-03-23T19:09:25.673Z,46.25
2023-03-23T19:12:32.361Z,46.28
2023-03-23T19:15:44.550Z,46.34
2023-03-23T19:18:50.858Z,46.38
2023-03-23T19:21:57.771Z,46.70
2023-03-23T19:25:03.904Z,46.72
2023-03-23T19:28:58.977Z,46.86
2023-03-23T19:31:39.888Z,47.10
2023-03-23T19:34:50.935Z,47.62
2023-03-23T19:37:57.656Z,47.42
2023-03-23T19:41:05.796Z,47.60
2023-03-23T19:44:12.259Z,48.10
2023-03-23T19:47:30.940Z,48.01
2023-03-23T19:50:56.716Z,48.21
2023-03-23T19:54:06.751Z,47.81
2023-03-23T19:57:22.696Z,47.69
2023-03-23T20:00:29.552Z,48.46
2023-03-23T20:03:49.084Z,48.53
2023-03-23T20:06:58.251Z,48.32
2023-03-23T20:10:06.202Z,48.10
2023-03-23T20:13:15.280Z,48.19
2023-03-23T20:16:22.188Z,48.09
2023-03-23T20:19:31.800Z,48.12
2023-03-23T20:22:38.083Z,47.68
2023-03-23T20:25:45.520Z,47.73
2023-03-23T20:28:52.347Z,47.82
2023-03-23T20:32:00.613Z,47.35
2023-03-23T20:35:13.254Z,47.26
2023-03-23T20:38:20.112Z,47.23
2023-03-23T20:41:26.997Z,47.15
2023-03-23T20:44:35.208Z,47.05
2023-03-23T20:47:42.365Z,47.11
2023-03-23T20:51:00.473Z,47.22
2023-03-23T20:54:11.406Z,46.99
2023-03-23T20:57:18.897Z,47.42
2023-03-23T21:00:25.526Z,47.80
2023-03-23T21:03:40.357Z,48.09
2023-03-23T21:06:53.476Z,48.07
2023-03-23T21:10:05.493Z,48.63
2023-03-23T21:13:11.696Z,48.38
2023-03-23T21:16:24.060Z,48.60
2023-03-23T21:19:30.366Z,48.88
2023-03-23T21:22:40.127Z,48.71
2023-03-23T21:25:48.017Z,48.71
2023-03-23T21:28:54.864Z,48.63
2023-03-23T21:32:08.562Z,48.94
2023-03-23T21:35:16.580Z,48.34
2023-03-23T21:38:26.882Z,48.58
2023-03-23T21:41:41.734Z,48.99
2023-03-23T21:44:49.026Z,48.84
2023-03-23T21:47:57.288Z,48.54
2023-03-23T21:51:09.551Z,48.40
2023-03-23T21:54:19.062Z,48.10
2023-03-23T21:57:25.113Z,48.15
2023-03-23T22:00:32.922Z,48.16
2023-03-23T22:03:39.297Z,47.62
2023-03-23T22:06:46.412Z,47.76
2023-03-23T22:09:55.557Z,47.37
2023-03-23T22:13:02.442Z,47.57
2023-03-23T22:16:13.579Z,47.74
2023-03-23T22:19:20.608Z,47.97
2023-03-23T22:22:26.685Z,47.66
2023-03-23T22:25:36.663Z,47.66
2023-03-23T22:28:43.861Z,48.13
2023-03-23T22:31:50.806Z,47.73
2023-03-23T22:34:56.868Z,47.69
2023-03-23T22:38:04.452Z,48.03
2023-03-23T22:41:20.843Z,47.77
2023-03-23T22:44:42.203Z,47.91
2023-03-23T22:47:48.542Z,47.89
2023-03-23T22:50:55.482Z,47.58
2023-03-23T22:54:05.258Z,47.86
2023-03-23T22:57:15.139Z,48.01
2023-03-23T23:00:21.977Z,47.82
2023-03-23T23:03:29.907Z,48.25
2023-03-23T23:06:36.807Z,48.16
2023-03-23T23:09:44.424Z,48.01
2023-03-23T23:12:54.436Z,48.13
2023-03-23T23:16:04.185Z,48.37
2023-03-23T23:19:10.185Z,48.35
2023-03-23T23:22:19.429Z,48.96
2023-03-23T23:25:28.950Z,48.70
2023-03-23T23:28:39.261Z,48.70
2023-03-23T23:31:45.701Z,49.02
2023-03-23T23:34:53.291Z,49.24
2023-03-23T23:37:59.374Z,49.39
2023-03-23T23:41:06.331Z,49.73
2023-03-23T23:44:14.968Z,49.64
2023-03-23T23:47:22.087Z,49.40
2023-03-23T23:50:31.631Z,49.18
2023-03-23T23:53:38.386Z,49.30
2023-03-23T23:56:44.436Z,49.21
2023-03-23T23:59:54.552Z,49.65
